createdAt,value
2023-04-09T00:00:27.521Z,1013.36
2023-04-09T00:01:27.531Z,1013.36
2023-04-09T00:02:27.538Z,1013.36
2023-04-09T00:03:27.657Z,1013.36
2023-04-09T00:04:27.509Z,1013.36
2023-04-09T00:05:27.502Z,1013.37
2023-04-09T00:06:27.491Z,1013.36
2023-04-09T00:07:27.474Z,1013.37
2023-04-09T00:08:27.496Z,1013.38
2023-04-09T00:09:27.438Z,1013.38
2023-04-09T00:10:27.414Z,1013.39
2023-04-09T00:11:27.429Z,1013.40
2023-04-09T00:12:27.440Z,1013.40
2023-04-09T00:13:38.528Z,1013.41
2023-04-09T00:14:27.378Z,1013.41
2023-04-09T00:15:31.216Z,1013.40
2023-04-09T00:16:27.385Z,1013.40
2023-04-09T00:17:27.385Z,1013.40
2023-04-09T00:18:27.356Z,1013.40
2023-04-09T00:19:27.332Z,1013.40
2023-04-09T00:20:27.345Z,1013.40
2023-04-09T00:21:27.318Z,1013.40
2023-04-09T00:22:27.329Z,1013.39
2023-04-09T00:23:27.296Z,1013.38
2023-04-09T00:24:27.317Z,1013.38
2023-04-09T00:25:27.287Z,1013.37
2023-04-09T00:26:27.255Z,1013.37
2023-04-09T00:27:27.276Z,1013.37
2023-04-09T00:28:27.383Z,1013.36
2023-04-09T00:29:27.240Z,1013.36
2023-04-09T00:30:27.213Z,1013.37
2023-04-09T00:31:27.227Z,1013.37
2023-04-09T00:32:27.203Z,1013.36
2023-04-09T00:33:27.190Z,1013.35
2023-04-09T00:34:27.249Z,1013.34
2023-04-09T00:35:27.166Z,1013.33
2023-04-09T00:36:27.195Z,1013.32
2023-04-09T00:37:27.146Z,1013.32
2023-04-09T00:38:27.135Z,1013.31
2023-04-09T00:39:27.120Z,1013.31
2023-04-09T00:40:27.119Z,1013.31
2023-04-09T00:41:27.089Z,1013.30
2023-04-09T00:42:27.088Z,1013.30
2023-04-09T00:43:27.133Z,1013.30
2023-04-09T00:44:27.081Z,1013.30
2023-04-09T00:45:27.110Z,1013.31
2023-04-09T00:46:27.141Z,1013.32
2023-04-09T00:47:27.101Z,1013.33
2023-04-09T00:48:27.025Z,1013.32
2023-04-09T00:49:27.022Z,1013.32
2023-04-09T00:50:27.046Z,1013.32
2023-04-09T00:51:26.994Z,1013.32
2023-04-09T00:52:26.992Z,1013.32
2023-04-09T00:53:26.989Z,1013.33
2023-04-09T00:54:26.965Z,1013.33
2023-04-09T00:55:26.962Z,1013.33
2023-04-09T00:56:26.943Z,1013.33
2023-04-09T00:57:26.943Z,1013.33
2023-04-09T00:58:26.920Z,1013.33
2023-04-09T00:59:26.965Z,1013.34
2023-04-09T01:00:26.923Z,1013.35
2023-04-09T01:01:26.958Z,1013.35
2023-04-09T01:02:26.975Z,1013.34
2023-04-09T01:03:26.981Z,1013.34
2023-04-09T01:04:26.844Z,1013.35
2023-04-09T01:05:27.149Z,1013.34
2023-04-09T01:06:26.852Z,1013.34
2023-04-09T01:07:26.825Z,1013.33
2023-04-09T01:08:26.805Z,1013.33
2023-04-09T01:09:26.807Z,1013.32
2023-04-09T01:10:26.811Z,1013.33
2023-04-09T01:11:26.798Z,1013.33
2023-04-09T01:12:26.761Z,1013.33
2023-04-09T01:13:26.809Z,1013.33
2023-04-09T01:14:26.773Z,1013.33
2023-04-09T01:15:26.748Z,1013.32
2023-04-09T01:16:26.784Z,1013.32
2023-04-09T01:17:26.752Z,1013.32
2023-04-09T01:18:26.708Z,1013.32
2023-04-09T01:19:26.695Z,1013.34
2023-04-09T01:20:26.697Z,1013.34
2023-04-09T01:21:26.715Z,1013.34
2023-04-09T01:22:26.720Z,1013.35
2023-04-09T01:23:26.661Z,1013.34
2023-04-09T01:24:26.717Z,1013.34
2023-04-09T01:25:26.648Z,1013.32
2023-04-09T01:26:26.626Z,1013.32
2023-04-09T01:27:26.674Z,1013.32
2023-04-09T01:28:26.593Z,1013.33
2023-04-09T01:29:26.631Z,1013.33
2023-04-09T01:30:26.626Z,1013.32
2023-04-09T01:31:26.573Z,1013.31
2023-04-09T01:32:26.732Z,1013.31
2023-04-09T01:33:26.561Z,1013.29
2023-04-09T01:34:26.546Z,1013.27
2023-04-09T01:35:26.546Z,1013.27
2023-04-09T01:36:26.530Z,1013.26
2023-04-09T01:37:26.520Z,1013.25
2023-04-09T01:38:26.525Z,1013.25
2023-04-09T01:39:26.490Z,1013.25
2023-04-09T01:40:26.482Z,1013.25
2023-04-09T01:41:26.521Z,1013.24
2023-04-09T01:42:26.470Z,1013.25
2023-04-09T01:43:26.501Z,1013.25
2023-04-09T01:44:26.483Z,1013.23
2023-04-09T01:45:26.496Z,1013.23
2023-04-09T01:46:26.504Z,1013.22
2023-04-09T01:47:26.434Z,1013.21
2023-04-09T01:48:26.419Z,1013.19
2023-04-09T01:49:26.391Z,1013.18
2023-04-09T01:50:26.413Z,1013.17
2023-04-09T01:51:26.437Z,1013.16
2023-04-09T01:52:26.429Z,1013.14
2023-04-09T01:53:26.369Z,1013.15
2023-04-09T01:54:26.363Z,1013.14
2023-04-09T01:55:26.345Z,1013.14
2023-04-09T01:56:26.305Z,1013.14
2023-04-09T01:57:26.347Z,1013.13
2023-04-09T01:58:26.318Z,1013.14
2023-04-09T01:59:26.296Z,1013.13
2023-04-09T02:00:26.292Z,1013.12
2023-04-09T02:01:26.307Z,1013.11
2023-04-09T02:02:26.322Z,1013.11
2023-04-09T02:03:26.358Z,1013.10
2023-04-09T02:04:26.324Z,1013.09
2023-04-09T02:05:26.252Z,1013.08
2023-04-09T02:06:26.226Z,1013.06
2023-04-09T02:07:26.208Z,1013.05
2023-04-09T02:08:26.184Z,1013.05
2023-04-09T02:09:26.222Z,1013.04
2023-04-09T02:10:26.188Z,1013.05
2023-04-09T02:11:26.180Z,1013.05
2023-04-09T02:12:26.216Z,1013.04
2023-04-09T02:13:26.148Z,1013.05
2023-04-09T02:14:26.172Z,1013.04
2023-04-09T02:15:26.126Z,1013.04
2023-04-09T02:16:26.108Z,1013.04
2023-04-09T02:17:26.203Z,1013.04
2023-04-09T02:18:26.132Z,1013.04
2023-04-09T02:19:26.085Z,1013.04
2023-04-09T02:20:26.090Z,1013.04
2023-04-09T02:21:26.058Z,1013.03
2023-04-09T02:22:26.052Z,1013.02
2023-04-09T02:23:26.041Z,1013.01
2023-04-09T02:24:26.039Z,1013.00
2023-04-09T02:25:26.034Z,1013.00
2023-04-09T02:26:25.989Z,1013.00
2023-04-09T02:27:26.035Z,1013.00
2023-04-09T02:28:25.985Z,1013.00
2023-04-09T02:29:26.003Z,1012.99
2023-04-09T02:30:25.974Z,1012.98
2023-04-09T02:31:26.016Z,1012.97
2023-04-09T02:32:25.982Z,1012.96
2023-04-09T02:33:25.945Z,1012.96
2023-04-09T02:34:25.943Z,1012.94
2023-04-09T02:35:25.915Z,1012.93
2023-04-09T02:36:25.946Z,1012.91
2023-04-09T02:37:25.927Z,1012.90
2023-04-09T02:38:25.943Z,1012.90
2023-04-09T02:39:25.866Z,1012.88
2023-04-09T02:40:25.861Z,1012.86
2023-04-09T02:41:25.887Z,1012.85
2023-04-09T02:42:25.853Z,1012.84
2023-04-09T02:43:25.833Z,1012.83
2023-04-09T02:44:25.844Z,1012.82
2023-04-09T02:45:25.804Z,1012.81
2023-04-09T02:46:25.861Z,1012.80
2023-04-09T02:47:25.825Z,1012.79
2023-04-09T02:48:26.044Z,1012.79
2023-04-09T02:49:25.811Z,1012.79
2023-04-09T02:50:27.323Z,1012.79
2023-04-09T02:51:25.763Z,1012.79
2023-04-09T02:52:25.777Z,1012.77
2023-04-09T02:53:25.740Z,1012.75
2023-04-09T02:54:25.733Z,1012.75
2023-04-09T02:55:25.725Z,1012.74
2023-04-09T02:56:25.744Z,1012.73
2023-04-09T02:57:25.762Z,1012.72
2023-04-09T02:58:25.794Z,1012.71
2023-04-09T02:59:25.728Z,1012.70
2023-04-09T03:00:25.695Z,1012.69
2023-04-09T03:01:25.838Z,1012.69
2023-04-09T03:02:25.893Z,1012.67
2023-04-09T03:03:25.789Z,1012.66
2023-04-09T03:04:25.877Z,1012.66
2023-04-09T03:05:25.666Z,1012.65
2023-04-09T03:06:25.743Z,1012.64
2023-04-09T03:07:25.738Z,1012.64
2023-04-09T03:08:25.775Z,1012.62
2023-04-09T03:09:25.793Z,1012.61
2023-04-09T03:10:25.686Z,1012.60
2023-04-09T03:11:25.762Z,1012.59
2023-04-09T03:12:25.630Z,1012.58
2023-04-09T03:13:25.703Z,1012.58
2023-04-09T03:14:25.637Z,1012.57
2023-04-09T03:15:25.591Z,1012.57
2023-04-09T03:16:25.635Z,1012.56
2023-04-09T03:17:25.730Z,1012.56
2023-04-09T03:18:25.783Z,1012.57
2023-04-09T03:19:25.563Z,1012.57
2023-04-09T03:20:25.847Z,1012.57
2023-04-09T03:21:25.663Z,1012.56
2023-04-09T03:22:25.517Z,1012.56
2023-04-09T03:23:25.739Z,1012.55
2023-04-09T03:24:25.484Z,1012.55
2023-04-09T03:25:25.497Z,1012.53
2023-04-09T03:26:25.707Z,1012.52
2023-04-09T03:27:25.386Z,1012.52
2023-04-09T03:28:25.397Z,1012.53
2023-04-09T03:29:25.492Z,1012.52
2023-04-09T03:30:25.364Z,1012.52
2023-04-09T03:31:25.426Z,1012.51
2023-04-09T03:32:25.396Z,1012.50
2023-04-09T03:33:25.615Z,1012.50
2023-04-09T03:34:25.364Z,1012.49
2023-04-09T03:35:25.494Z,1012.49
2023-04-09T03:36:25.301Z,1012.48
2023-04-09T03:37:25.290Z,1012.48
2023-04-09T03:38:25.269Z,1012.48
2023-04-09T03:39:25.254Z,1012.47
2023-04-09T03:40:25.293Z,1012.48
2023-04-09T03:41:25.278Z,1012.47
2023-04-09T03:42:25.244Z,1012.47
2023-04-09T03:43:25.242Z,1012.47
2023-04-09T03:44:25.211Z,1012.46
2023-04-09T03:45:25.185Z,1012.46
2023-04-09T03:46:25.384Z,1012.45
2023-04-09T03:47:25.174Z,1012.45
2023-04-09T03:48:25.160Z,1012.46
2023-04-09T03:49:25.145Z,1012.45
2023-04-09T03:50:25.162Z,1012.46
2023-04-09T03:51:25.135Z,1012.45
2023-04-09T03:52:25.131Z,1012.45
2023-04-09T03:53:25.117Z,1012.45
2023-04-09T03:54:25.362Z,1012.46
2023-04-09T03:55:25.076Z,1012.46
2023-04-09T03:56:25.069Z,1012.47
2023-04-09T03:57:25.064Z,1012.48
2023-04-09T03:58:25.070Z,1012.49
2023-04-09T03:59:25.016Z,1012.48
2023-04-09T04:00:25.059Z,1012.48
2023-04-09T04:01:25.046Z,1012.48
2023-04-09T04:02:25.136Z,1012.48
2023-04-09T04:03:25.093Z,1012.49
2023-04-09T04:04:25.082Z,1012.49
2023-04-09T04:05:25.007Z,1012.51
2023-04-09T04:06:24.980Z,1012.52
2023-04-09T04:07:24.958Z,1012.53
2023-04-09T04:08:24.953Z,1012.52
2023-04-09T04:09:24.934Z,1012.53
2023-04-09T04:10:24.953Z,1012.54
2023-04-09T04:11:24.913Z,1012.54
2023-04-09T04:12:24.936Z,1012.54
2023-04-09T04:13:24.908Z,1012.54
2023-04-09T04:14:24.959Z,1012.53
2023-04-09T04:15:24.883Z,1012.53
2023-04-09T04:16:24.907Z,1012.55
2023-04-09T04:17:24.868Z,1012.55
2023-04-09T04:18:24.817Z,1012.54
2023-04-09T04:19:24.787Z,1012.54
2023-04-09T04:20:24.848Z,1012.53
2023-04-09T04:21:24.805Z,1012.52
2023-04-09T04:22:26.245Z,1012.52
2023-04-09T04:23:24.737Z,1012.52
2023-04-09T04:24:24.828Z,1012.51
2023-04-09T04:25:24.746Z,1012.51
2023-04-09T04:26:24.735Z,1012.51
2023-04-09T04:27:24.680Z,1012.51
2023-04-09T04:28:24.794Z,1012.51
2023-04-09T04:29:24.773Z,1012.51
2023-04-09T04:30:25.103Z,1012.51
2023-04-09T04:31:24.946Z,1012.51
2023-04-09T04:32:24.943Z,1012.50
2023-04-09T04:33:24.635Z,1012.49
2023-04-09T04:34:24.642Z,1012.50
2023-04-09T04:35:24.672Z,1012.50
2023-04-09T04:36:24.660Z,1012.51
2023-04-09T04:37:24.581Z,1012.51
2023-04-09T04:38:24.610Z,1012.51
2023-04-09T04:39:24.576Z,1012.51
2023-04-09T04:40:24.586Z,1012.51
2023-04-09T04:41:24.596Z,1012.52
2023-04-09T04:42:24.554Z,1012.52
2023-04-09T04:43:24.518Z,1012.52
2023-04-09T04:44:24.561Z,1012.52
2023-04-09T04:45:24.547Z,1012.52
2023-04-09T04:46:24.502Z,1012.52
2023-04-09T04:47:24.542Z,1012.51
2023-04-09T04:48:24.574Z,1012.51
2023-04-09T04:49:24.490Z,1012.50
2023-04-09T04:50:24.471Z,1012.50
2023-04-09T04:51:24.486Z,1012.50
2023-04-09T04:52:24.467Z,1012.50
2023-04-09T04:53:24.426Z,1012.50
2023-04-09T04:54:24.434Z,1012.50
2023-04-09T04:55:24.421Z,1012.50
2023-04-09T04:56:24.401Z,1012.51
2023-04-09T04:57:24.394Z,1012.52
2023-04-09T04:58:24.404Z,1012.52
2023-04-09T04:59:24.377Z,1012.53
2023-04-09T05:00:24.381Z,1012.53
2023-04-09T05:01:24.380Z,1012.54
2023-04-09T05:02:24.462Z,1012.54
2023-04-09T05:03:27.029Z,1012.53
2023-04-09T05:04:24.425Z,1012.54
2023-04-09T05:05:24.321Z,1012.56
2023-04-09T05:06:24.311Z,1012.56
2023-04-09T05:07:24.302Z,1012.57
2023-04-09T05:08:24.336Z,1012.58
2023-04-09T05:10:16.036Z,1012.60
2023-04-09T05:11:16.860Z,1012.59
2023-04-09T05:12:16.806Z,1012.59
2023-04-09T05:13:16.823Z,1012.59
2023-04-09T05:14:16.773Z,1012.59
2023-04-09T05:15:16.830Z,1012.59
2023-04-09T05:16:16.795Z,1012.59
2023-04-09T05:17:16.801Z,1012.58
2023-04-09T05:18:16.781Z,1012.58
2023-04-09T05:19:16.744Z,1012.58
2023-04-09T05:20:16.897Z,1012.58
2023-04-09T05:21:17.040Z,1012.57
2023-04-09T05:22:16.947Z,1012.57
2023-04-09T05:23:16.773Z,1012.56
2023-04-09T05:24:16.943Z,1012.56
2023-04-09T05:25:16.736Z,1012.55
2023-04-09T05:26:17.056Z,1012.54
2023-04-09T05:27:17.010Z,1012.54
2023-04-09T05:28:16.851Z,1012.53
2023-04-09T05:29:16.691Z,1012.54
2023-04-09T05:30:16.882Z,1012.55
2023-04-09T05:31:16.895Z,1012.57
2023-04-09T05:32:16.696Z,1012.58
2023-04-09T05:33:17.128Z,1012.60
2023-04-09T05:34:16.908Z,1012.61
2023-04-09T05:35:16.993Z,1012.62
2023-04-09T05:36:16.715Z,1012.62
2023-04-09T05:37:16.842Z,1012.63
2023-04-09T05:38:16.719Z,1012.63
2023-04-09T05:39:16.578Z,1012.63
2023-04-09T05:40:16.784Z,1012.63
2023-04-09T05:41:16.567Z,1012.63
2023-04-09T05:42:16.534Z,1012.63
2023-04-09T05:43:16.991Z,1012.62
2023-04-09T05:44:16.508Z,1012.63
2023-04-09T05:45:16.537Z,1012.63
2023-04-09T05:46:16.537Z,1012.64
2023-04-09T05:47:16.536Z,1012.64
2023-04-09T05:48:16.898Z,1012.64
2023-04-09T05:49:16.470Z,1012.65
2023-04-09T05:50:16.770Z,1012.66
2023-04-09T05:51:16.809Z,1012.66
2023-04-09T05:52:17.063Z,1012.67
2023-04-09T05:53:16.476Z,1012.67
2023-04-09T05:54:16.408Z,1012.67
2023-04-09T05:55:16.450Z,1012.67
2023-04-09T05:56:16.365Z,1012.68
2023-04-09T05:57:16.494Z,1012.67
2023-04-09T05:58:16.351Z,1012.67
2023-04-09T05:59:16.416Z,1012.66
2023-04-09T06:00:16.410Z,1012.65
2023-04-09T06:01:16.384Z,1012.64
2023-04-09T06:02:16.388Z,1012.63
2023-04-09T06:03:16.459Z,1012.62
2023-04-09T06:04:16.358Z,1012.62
2023-04-09T06:05:16.331Z,1012.61
2023-04-09T06:06:16.283Z,1012.61
2023-04-09T06:07:16.288Z,1012.60
2023-04-09T06:08:16.267Z,1012.59
2023-04-09T06:09:16.277Z,1012.58
2023-04-09T06:10:16.222Z,1012.59
2023-04-09T06:11:16.223Z,1012.59
2023-04-09T06:12:16.333Z,1012.59
2023-04-09T06:13:16.198Z,1012.58
2023-04-09T06:14:16.173Z,1012.58
2023-04-09T06:15:16.182Z,1012.56
2023-04-09T06:16:16.279Z,1012.56
2023-04-09T06:17:16.157Z,1012.55
2023-04-09T06:18:16.167Z,1012.55
2023-04-09T06:19:16.186Z,1012.56
2023-04-09T06:20:16.132Z,1012.56
2023-04-09T06:21:16.107Z,1012.56
2023-04-09T06:22:16.106Z,1012.56
2023-04-09T06:23:16.165Z,1012.55
2023-04-09T06:24:16.088Z,1012.57
2023-04-09T06:25:16.079Z,1012.56
2023-04-09T06:26:16.055Z,1012.56
2023-04-09T06:27:16.060Z,1012.58
2023-04-09T06:28:16.073Z,1012.59
2023-04-09T06:29:16.028Z,1012.59
2023-04-09T06:30:16.154Z,1012.60
2023-04-09T06:31:16.106Z,1012.62
2023-04-09T06:32:15.996Z,1012.62
2023-04-09T06:33:16.012Z,1012.64
2023-04-09T06:34:15.970Z,1012.66
2023-04-09T06:35:15.983Z,1012.69
2023-04-09T06:36:15.998Z,1012.71
2023-04-09T06:37:15.940Z,1012.72
2023-04-09T06:38:15.961Z,1012.73
2023-04-09T06:39:15.961Z,1012.74
2023-04-09T06:40:15.920Z,1012.74
2023-04-09T06:41:16.035Z,1012.76
2023-04-09T06:42:15.917Z,1012.78
2023-04-09T06:43:15.888Z,1012.79
2023-04-09T06:44:15.884Z,1012.80
2023-04-09T06:45:15.856Z,1012.81
2023-04-09T06:46:15.892Z,1012.82
2023-04-09T06:47:15.873Z,1012.82
2023-04-09T06:48:15.811Z,1012.84
2023-04-09T06:49:15.829Z,1012.85
2023-04-09T06:50:15.816Z,1012.88
2023-04-09T06:51:15.791Z,1012.89
2023-04-09T06:52:15.864Z,1012.89
2023-04-09T06:53:15.801Z,1012.90
2023-04-09T06:54:15.800Z,1012.89
2023-04-09T06:55:15.767Z,1012.88
2023-04-09T06:56:15.798Z,1012.89
2023-04-09T06:57:15.721Z,1012.89
2023-04-09T06:58:15.781Z,1012.88
2023-04-09T06:59:15.704Z,1012.89
2023-04-09T07:00:15.715Z,1012.89
2023-04-09T07:01:15.704Z,1012.89
2023-04-09T07:02:15.756Z,1012.90
2023-04-09T07:03:15.762Z,1012.91
2023-04-09T07:04:15.942Z,1012.91
2023-04-09T07:05:15.671Z,1012.91
2023-04-09T07:06:15.684Z,1012.92
2023-04-09T07:07:15.616Z,1012.92
2023-04-09T07:08:15.713Z,1012.90
2023-04-09T07:09:15.741Z,1012.91
2023-04-09T07:10:15.651Z,1012.93
2023-04-09T07:11:15.629Z,1012.96
2023-04-09T07:12:15.584Z,1012.96
2023-04-09T07:13:15.565Z,1012.97
2023-04-09T07:14:15.632Z,1012.97
2023-04-09T07:15:15.625Z,1012.98
2023-04-09T07:16:15.672Z,1012.98
2023-04-09T07:17:15.752Z,1012.99
2023-04-09T07:18:15.555Z,1012.98
2023-04-09T07:19:15.577Z,1012.97
2023-04-09T07:20:15.529Z,1012.99
2023-04-09T07:21:15.476Z,1012.98
2023-04-09T07:22:15.494Z,1012.99
2023-04-09T07:23:15.456Z,1012.97
2023-04-09T07:24:15.520Z,1012.96
2023-04-09T07:25:15.480Z,1012.96
2023-04-09T07:26:15.432Z,1012.97
2023-04-09T07:27:15.439Z,1012.98
2023-04-09T07:28:15.534Z,1012.99
2023-04-09T07:29:15.395Z,1013.00
2023-04-09T07:30:15.416Z,1013.02
2023-04-09T07:31:15.426Z,1013.03
2023-04-09T07:32:15.378Z,1013.05
2023-04-09T07:33:15.365Z,1013.03
2023-04-09T07:34:15.355Z,1013.03
2023-04-09T07:35:15.341Z,1013.03
2023-04-09T07:36:15.600Z,1013.04
2023-04-09T07:37:15.403Z,1013.03
2023-04-09T07:38:15.460Z,1013.03
2023-04-09T07:39:15.288Z,1013.04
2023-04-09T07:40:15.327Z,1013.04
2023-04-09T07:41:15.433Z,1013.03
2023-04-09T07:42:15.273Z,1013.03
2023-04-09T07:43:15.252Z,1013.03
2023-04-09T07:44:15.246Z,1013.02
2023-04-09T07:45:15.224Z,1013.02
2023-04-09T07:46:15.512Z,1013.02
2023-04-09T07:47:15.213Z,1013.00
2023-04-09T07:48:15.239Z,1013.00
2023-04-09T07:49:15.182Z,1013.02
2023-04-09T07:50:15.179Z,1013.04
2023-04-09T07:51:15.196Z,1013.03
2023-04-09T07:52:15.530Z,1013.05
2023-04-09T07:53:15.169Z,1013.05
2023-04-09T07:54:15.171Z,1013.07
2023-04-09T07:55:16.297Z,1013.08
2023-04-09T07:56:15.124Z,1013.09
2023-04-09T07:57:15.153Z,1013.10
2023-04-09T07:58:15.129Z,1013.11
2023-04-09T07:59:15.091Z,1013.10
2023-04-09T08:00:15.100Z,1013.11
2023-04-09T08:01:15.050Z,1013.10
2023-04-09T08:02:15.500Z,1013.11
2023-04-09T08:03:15.313Z,1013.10
2023-04-09T08:04:15.236Z,1013.09
2023-04-09T08:05:15.184Z,1013.10
2023-04-09T08:06:17.688Z,1013.09
2023-04-09T08:07:14.986Z,1013.09
2023-04-09T08:08:15.010Z,1013.09
2023-04-09T08:09:14.974Z,1013.09
2023-04-09T08:10:15.042Z,1013.08
2023-04-09T08:11:14.967Z,1013.08
2023-04-09T08:12:14.958Z,1013.08
2023-04-09T08:13:14.993Z,1013.08
2023-04-09T08:14:14.941Z,1013.07
2023-04-09T08:15:14.908Z,1013.06
2023-04-09T08:16:14.950Z,1013.06
2023-04-09T08:17:14.890Z,1013.08
2023-04-09T08:18:14.892Z,1013.05
2023-04-09T08:19:14.899Z,1013.05
2023-04-09T08:20:14.901Z,1013.07
2023-04-09T08:21:14.871Z,1013.05
2023-04-09T08:22:14.884Z,1013.06
2023-04-09T08:23:14.873Z,1013.07
2023-04-09T08:24:14.940Z,1013.05
2023-04-09T08:25:14.881Z,1013.07
2023-04-09T08:26:14.852Z,1013.09
2023-04-09T08:27:14.827Z,1013.09
2023-04-09T08:28:14.834Z,1013.09
2023-04-09T08:29:14.772Z,1013.08
2023-04-09T08:30:15.923Z,1013.07
2023-04-09T08:31:14.742Z,1013.10
2023-04-09T08:32:14.840Z,1013.08
2023-04-09T08:33:15.010Z,1013.09
2023-04-09T08:34:14.716Z,1013.11
2023-04-09T08:35:14.750Z,1013.10
2023-04-09T08:36:14.727Z,1013.13
2023-04-09T08:37:14.693Z,1013.13
2023-04-09T08:38:14.683Z,1013.11
2023-04-09T08:39:14.695Z,1013.12
2023-04-09T08:40:14.720Z,1013.10
2023-04-09T08:41:15.143Z,1013.11
2023-04-09T08:42:14.696Z,1013.11
2023-04-09T08:43:14.745Z,1013.12
2023-04-09T08:44:14.674Z,1013.13
2023-04-09T08:45:14.658Z,1013.13
2023-04-09T08:46:14.629Z,1013.15
2023-04-09T08:47:14.794Z,1013.13
2023-04-09T08:48:14.928Z,1013.12
2023-04-09T08:49:15.271Z,1013.13
2023-04-09T08:50:14.564Z,1013.13
2023-04-09T08:51:14.557Z,1013.13
2023-04-09T08:52:14.558Z,1013.12
2023-04-09T08:53:14.581Z,1013.12
2023-04-09T08:54:14.540Z,1013.12
2023-04-09T08:55:14.573Z,1013.12
2023-04-09T08:56:14.501Z,1013.12
2023-04-09T08:57:14.479Z,1013.12
2023-04-09T08:58:14.473Z,1013.12
2023-04-09T08:59:14.607Z,1013.12
2023-04-09T09:00:14.480Z,1013.10
2023-04-09T09:01:14.470Z,1013.08
2023-04-09T09:02:14.510Z,1013.06
2023-04-09T09:03:14.554Z,1013.07
2023-04-09T09:04:14.447Z,1013.05
2023-04-09T09:05:14.394Z,1013.06
2023-04-09T09:06:14.418Z,1013.06
2023-04-09T09:07:14.408Z,1013.04
2023-04-09T09:08:14.381Z,1013.02
2023-04-09T09:09:14.359Z,1013.03
2023-04-09T09:10:14.393Z,1013.06
2023-04-09T09:11:14.391Z,1013.02
2023-04-09T09:12:14.486Z,1012.99
2023-04-09T09:13:14.401Z,1012.98
2023-04-09T09:14:14.298Z,1012.99
2023-04-09T09:15:14.763Z,1012.98
2023-04-09T09:16:14.382Z,1012.99
2023-04-09T09:17:14.438Z,1012.98
2023-04-09T09:18:14.573Z,1012.98
2023-04-09T09:19:14.244Z,1013.00
2023-04-09T09:20:14.232Z,1013.03
2023-04-09T09:21:14.385Z,1013.01
2023-04-09T09:22:14.243Z,1013.00
2023-04-09T09:23:14.295Z,1013.02
2023-04-09T09:24:14.231Z,1013.01
2023-04-09T09:25:14.190Z,1013.02
2023-04-09T09:26:14.163Z,1013.02
2023-04-09T09:27:14.170Z,1013.02
2023-04-09T09:28:14.242Z,1013.01
2023-04-09T09:29:14.148Z,1012.99
2023-04-09T09:30:14.177Z,1012.99
2023-04-09T09:31:14.201Z,1012.99
2023-04-09T09:32:14.127Z,1013.01
2023-04-09T09:33:14.108Z,1012.97
2023-04-09T09:34:14.193Z,1012.96
2023-04-09T09:35:14.293Z,1012.98
2023-04-09T09:36:14.080Z,1012.96
2023-04-09T09:37:14.052Z,1012.94
2023-04-09T09:38:14.176Z,1012.92
2023-04-09T09:39:14.030Z,1012.89
2023-04-09T09:40:14.043Z,1012.90
2023-04-09T09:41:14.076Z,1012.93
2023-04-09T09:42:14.004Z,1012.94
2023-04-09T09:43:14.677Z,1012.92
2023-04-09T09:44:13.999Z,1012.91
2023-04-09T09:45:13.981Z,1012.89
2023-04-09T09:46:14.045Z,1012.91
2023-04-09T09:47:13.987Z,1012.89
2023-04-09T09:48:13.971Z,1012.88
2023-04-09T09:49:14.180Z,1012.89
2023-04-09T09:50:13.939Z,1012.87
2023-04-09T09:51:13.906Z,1012.83
2023-04-09T09:52:13.904Z,1012.81
2023-04-09T09:53:13.889Z,1012.83
2023-04-09T09:54:13.886Z,1012.86
2023-04-09T09:55:13.940Z,1012.83
2023-04-09T09:56:13.866Z,1012.82
2023-04-09T09:57:14.585Z,1012.82
2023-04-09T09:58:14.136Z,1012.80
2023-04-09T09:59:13.838Z,1012.78
2023-04-09T10:00:13.867Z,1012.78
2023-04-09T10:01:13.840Z,1012.74
2023-04-09T10:02:13.840Z,1012.72
2023-04-09T10:03:13.883Z,1012.72
2023-04-09T10:04:13.829Z,1012.72
2023-04-09T10:05:13.777Z,1012.73
2023-04-09T10:06:13.936Z,1012.73
2023-04-09T10:07:13.737Z,1012.71
2023-04-09T10:08:13.745Z,1012.73
2023-04-09T10:09:13.724Z,1012.71
2023-04-09T10:10:13.981Z,1012.67
2023-04-09T10:11:13.712Z,1012.68
2023-04-09T10:12:13.785Z,1012.66
2023-04-09T10:13:13.944Z,1012.65
2023-04-09T10:14:14.887Z,1012.65
2023-04-09T10:15:13.957Z,1012.64
2023-04-09T10:16:13.732Z,1012.64
2023-04-09T10:17:13.652Z,1012.60
2023-04-09T10:18:13.659Z,1012.62
2023-04-09T10:19:13.604Z,1012.61
2023-04-09T10:20:13.999Z,1012.62
2023-04-09T10:21:13.719Z,1012.56
2023-04-09T10:22:13.625Z,1012.55
2023-04-09T10:23:14.126Z,1012.52
2023-04-09T10:24:13.594Z,1012.53
2023-04-09T10:25:13.592Z,1012.52
2023-04-09T10:26:13.752Z,1012.54
2023-04-09T10:27:15.957Z,1012.52
2023-04-09T10:28:13.532Z,1012.53
2023-04-09T10:29:13.649Z,1012.53
2023-04-09T10:30:13.538Z,1012.52
2023-04-09T10:31:13.687Z,1012.52
2023-04-09T10:32:13.505Z,1012.54
2023-04-09T10:33:13.563Z,1012.52
2023-04-09T10:34:13.556Z,1012.50
2023-04-09T10:35:13.479Z,1012.50
2023-04-09T10:36:13.571Z,1012.51
2023-04-09T10:37:13.467Z,1012.51
2023-04-09T10:38:13.571Z,1012.52
2023-04-09T10:39:13.617Z,1012.47
2023-04-09T10:40:13.441Z,1012.46
2023-04-09T10:41:13.393Z,1012.47
2023-04-09T10:42:13.435Z,1012.47
2023-04-09T10:43:13.409Z,1012.49
2023-04-09T10:44:13.503Z,1012.49
2023-04-09T10:45:13.858Z,1012.45
2023-04-09T10:46:13.784Z,1012.48
2023-04-09T10:47:13.738Z,1012.48
2023-04-09T10:48:13.358Z,1012.46
2023-04-09T10:49:13.324Z,1012.44
2023-04-09T10:50:13.328Z,1012.45
2023-04-09T10:51:13.289Z,1012.43
2023-04-09T10:52:13.365Z,1012.41
2023-04-09T10:53:13.366Z,1012.42
2023-04-09T10:54:13.263Z,1012.39
2023-04-09T10:55:13.381Z,1012.39
2023-04-09T10:56:13.269Z,1012.36
2023-04-09T10:57:13.439Z,1012.37
2023-04-09T10:58:13.932Z,1012.37
2023-04-09T10:59:13.346Z,1012.38
2023-04-09T11:00:13.868Z,1012.36
2023-04-09T11:01:13.235Z,1012.38
2023-04-09T11:02:13.264Z,1012.37
2023-04-09T11:03:13.469Z,1012.40
2023-04-09T11:04:13.241Z,1012.41
2023-04-09T11:05:13.502Z,1012.39
2023-04-09T11:06:13.176Z,1012.38
2023-04-09T11:07:13.229Z,1012.37
2023-04-09T11:08:13.435Z,1012.32
2023-04-09T11:09:13.413Z,1012.34
2023-04-09T11:10:14.908Z,1012.27
2023-04-09T11:11:13.105Z,1012.26
2023-04-09T11:12:13.116Z,1012.24
2023-04-09T11:13:13.629Z,1012.26
2023-04-09T11:14:13.144Z,1012.27
2023-04-09T11:15:13.275Z,1012.24
2023-04-09T11:16:13.122Z,1012.23
2023-04-09T11:17:13.087Z,1012.21
2023-04-09T11:18:13.786Z,1012.18
2023-04-09T11:19:13.110Z,1012.14
2023-04-09T11:20:12.967Z,1012.15
2023-04-09T11:21:13.093Z,1012.14
2023-04-09T11:22:12.951Z,1012.16
2023-04-09T11:23:12.955Z,1012.12
2023-04-09T11:24:13.354Z,1012.15
2023-04-09T11:25:13.316Z,1012.18
2023-04-09T11:26:12.963Z,1012.13
2023-04-09T11:27:12.928Z,1012.13
2023-04-09T11:28:12.899Z,1012.16
2023-04-09T11:29:12.950Z,1012.16
2023-04-09T11:30:12.869Z,1012.14
2023-04-09T11:31:12.937Z,1012.13
2023-04-09T11:32:12.844Z,1012.08
2023-04-09T11:33:12.913Z,1012.08
2023-04-09T11:34:12.820Z,1012.07
2023-04-09T11:35:13.466Z,1012.07
2023-04-09T11:36:12.906Z,1012.07
2023-04-09T11:37:13.140Z,1012.10
2023-04-09T11:38:12.906Z,1012.10
2023-04-09T11:39:13.459Z,1012.11
2023-04-09T11:40:13.144Z,1012.13
2023-04-09T11:41:12.827Z,1012.12
2023-04-09T11:42:12.746Z,1012.10
2023-04-09T11:43:12.770Z,1012.13
2023-04-09T11:44:12.735Z,1012.11
2023-04-09T11:45:13.427Z,1012.09
2023-04-09T11:46:12.700Z,1012.05
2023-04-09T11:47:12.703Z,1012.08
2023-04-09T11:48:13.444Z,1012.11
2023-04-09T11:49:13.007Z,1012.13
2023-04-09T11:50:13.048Z,1012.12
2023-04-09T11:51:12.660Z,1012.09
2023-04-09T11:52:12.663Z,1012.10
2023-04-09T11:53:12.825Z,1012.09
2023-04-09T11:54:12.634Z,1012.10
2023-04-09T11:55:13.069Z,1012.10
2023-04-09T11:56:12.630Z,1012.09
2023-04-09T11:57:12.598Z,1012.08
2023-04-09T11:58:12.577Z,1012.07
2023-04-09T11:59:12.625Z,1012.07
2023-04-09T12:00:12.548Z,1012.07
2023-04-09T12:01:12.602Z,1012.09
2023-04-09T12:02:12.684Z,1012.10
2023-04-09T12:03:12.869Z,1012.09
2023-04-09T12:04:12.831Z,1012.09
2023-04-09T12:05:12.711Z,1012.06
2023-04-09T12:06:13.132Z,1012.05